createdAt,value
2023-04-01T00:01:46.494Z,0.90
2023-04-01T00:06:08.934Z,0.82
2023-04-01T00:10:30.557Z,1.00
2023-04-01T00:14:52.875Z,1.00
2023-04-01T00:19:16.812Z,1.00
2023-04-01T00:23:38.943Z,1.20
2023-04-01T00:28:01.365Z,0.95
2023-04-01T00:32:23.353Z,0.82
2023-04-01T00:36:45.629Z,1.20
2023-04-01T00:41:08.779Z,0.55
2023-04-01T00:45:37.319Z,1.10
2023-04-01T00:50:00.456Z,0.80
2023-04-01T00:54:25.643Z,0.85
2023-04-01T00:58:53.086Z,1.38
2023-04-01T01:03:15.004Z,1.20
2023-04-01T01:08:05.565Z,0.63
2023-04-01T01:12:54.567Z,1.00
2023-04-01T01:17:57.212Z,0.60
2023-04-01T01:22:51.630Z,1.00
2023-04-01T01:27:24.039Z,0.90
2023-04-01T01:32:34.831Z,0.98
2023-04-01T01:37:02.493Z,1.25
2023-04-01T01:41:27.861Z,0.98
2023-04-01T01:45:59.047Z,1.25
2023-04-01T01:50:22.745Z,1.60
2023-04-01T01:54:54.857Z,1.50
2023-04-01T01:59:22.790Z,1.17
2023-04-01T02:03:46.198Z,0.90
2023-04-01T02:08:17.477Z,1.60
2023-04-01T02:12:40.886Z,1.98
2023-04-01T02:17:21.653Z,1.65
2023-04-01T02:21:44.400Z,0.82
2023-04-01T02:26:10.038Z,1.40
2023-04-01T02:30:36.347Z,1.10
2023-04-01T02:35:00.336Z,1.13
2023-04-01T02:39:22.751Z,1.08
2023-04-01T02:43:45.149Z,1.27
2023-04-01T02:48:08.171Z,1.50
2023-04-01T02:52:31.072Z,0.88
2023-04-01T02:56:56.673Z,1.00
2023-04-01T03:01:18.704Z,0.82
2023-04-01T03:05:41.253Z,0.70
2023-04-01T03:10:03.628Z,1.10
2023-04-01T03:14:25.842Z,1.88
2023-04-01T03:18:47.985Z,1.08
2023-04-01T03:23:10.523Z,0.80
2023-04-01T03:27:32.839Z,1.10
2023-04-01T03:31:55.057Z,0.77
2023-04-01T03:36:18.189Z,0.88
2023-04-01T03:40:44.902Z,1.17
2023-04-01T03:45:07.745Z,0.50
2023-04-01T03:49:29.564Z,1.33
2023-04-01T03:53:51.413Z,1.15
2023-04-01T03:58:13.553Z,1.02
2023-04-01T04:02:36.859Z,1.25
2023-04-01T04:06:59.337Z,1.00
2023-04-01T04:11:23.483Z,0.80
2023-04-01T04:15:47.513Z,1.00
2023-04-01T04:20:10.639Z,0.73
2023-04-01T04:24:32.683Z,0.93
2023-04-01T04:29:02.557Z,0.82
2023-04-01T04:33:27.279Z,1.00
2023-04-01T04:37:49.855Z,0.80
2023-04-01T04:42:12.350Z,0.98
2023-04-01T04:46:34.719Z,0.75
2023-04-01T04:51:06.523Z,0.98
2023-04-01T04:55:28.811Z,0.85
2023-04-01T05:00:11.447Z,1.08
2023-04-01T05:04:45.557Z,0.85
2023-04-01T05:09:07.746Z,1.40
2023-04-01T05:13:30.655Z,0.82
2023-04-01T05:17:53.350Z,0.60
2023-04-01T05:22:15.768Z,1.20
2023-04-01T05:26:39.205Z,0.52
2023-04-01T05:31:02.894Z,1.05
2023-04-01T05:35:31.178Z,1.30
2023-04-01T05:39:53.473Z,1.25
2023-04-01T05:44:15.858Z,0.85
2023-04-01T05:48:38.532Z,1.00
2023-04-01T05:53:00.669Z,0.80
2023-04-01T05:57:22.910Z,1.35
2023-04-01T06:01:45.516Z,0.80
2023-04-01T06:06:21.256Z,0.73
2023-04-01T06:11:27.492Z,1.10
2023-04-01T06:16:13.733Z,0.95
2023-04-01T06:20:48.969Z,1.10
2023-04-01T06:25:41.110Z,1.23
2023-04-01T06:30:31.466Z,1.55
2023-04-01T06:35:17.668Z,2.22
2023-04-01T06:40:23.883Z,1.35
2023-04-01T06:45:34.670Z,1.08
2023-04-01T06:50:46.604Z,1.25
2023-04-01T06:55:49.822Z,0.93
2023-04-01T07:00:44.507Z,0.70
2023-04-01T07:05:08.038Z,1.33
2023-04-01T07:09:42.804Z,0.57
2023-04-01T07:14:41.484Z,1.30
2023-04-01T07:19:20.356Z,0.98
2023-04-01T07:24:02.301Z,1.95
2023-04-01T07:28:46.025Z,1.58
2023-04-01T07:33:47.794Z,1.50
2023-04-01T07:38:26.802Z,1.75
2023-04-01T07:43:23.297Z,1.60
2023-04-01T07:48:32.483Z,1.88
2023-04-01T07:53:10.626Z,1.40
2023-04-01T07:57:44.142Z,1.95
2023-04-01T08:02:46.955Z,2.60
2023-04-01T08:07:27.004Z,2.13
2023-04-01T08:12:23.360Z,1.48
2023-04-01T08:17:31.004Z,1.45
2023-04-01T08:21:57.475Z,1.50
2023-04-01T08:26:41.417Z,2.50
2023-04-01T08:31:38.242Z,1.30
2023-04-01T08:36:08.663Z,1.27
2023-04-01T08:41:28.696Z,1.20
2023-04-01T08:46:22.802Z,1.60
2023-04-01T08:51:08.889Z,1.65
2023-04-01T08:56:18.054Z,1.40
2023-04-01T09:01:37.681Z,1.65
2023-04-01T09:06:36.807Z,1.10
2023-04-01T09:11:27.118Z,1.15
2023-04-01T09:16:17.368Z,1.23
2023-04-01T09:21:12.663Z,1.52
2023-04-01T09:25:53.018Z,0.90
2023-04-01T09:30:36.519Z,1.58
2023-04-01T09:35:39.235Z,1.38
2023-04-01T09:40:54.552Z,1.08
2023-04-01T09:45:45.016Z,2.05
2023-04-01T09:50:40.561Z,1.50
2023-04-01T09:55:39.617Z,1.20
2023-04-01T10:00:19.456Z,0.90
2023-04-01T10:05:13.081Z,0.90
2023-04-01T10:10:09.687Z,1.45
2023-04-01T10:15:46.012Z,1.90
2023-04-01T10:20:18.619Z,1.17
2023-04-01T10:25:05.512Z,0.95
2023-04-01T10:29:59.967Z,1.08
2023-04-01T10:35:12.795Z,1.35
2023-04-01T10:40:02.701Z,0.47
2023-04-01T10:45:20.247Z,0.95
2023-04-01T10:50:26.817Z,1.20
2023-04-01T10:55:14.099Z,0.88
2023-04-01T11:00:17.601Z,0.80
2023-04-01T11:05:36.038Z,1.60
2023-04-01T11:10:55.814Z,1.38
2023-04-01T11:15:58.543Z,1.00
2023-04-01T11:20:53.935Z,0.80
2023-04-01T11:25:58.835Z,0.70
2023-04-01T11:31:10.845Z,0.30
2023-04-01T11:35:52.516Z,0.85
2023-04-01T11:40:36.840Z,0.55
2023-04-01T11:46:02.072Z,0.70
2023-04-01T11:50:48.876Z,0.70
2023-04-01T11:55:43.875Z,0.65
2023-04-01T12:00:54.187Z,0.77
2023-04-01T12:05:52.059Z,1.00
2023-04-01T12:10:26.199Z,0.95
2023-04-01T12:15:17.409Z,1.58
2023-04-01T12:20:12.443Z,1.10
2023-04-01T12:24:42.979Z,0.95
2023-04-01T12:29:42.882Z,0.60
2023-04-01T12:34:50.740Z,1.00
2023-04-01T12:39:24.806Z,0.65
2023-04-01T12:44:10.371Z,2.42
2023-04-01T12:49:14.523Z,0.55
2023-04-01T12:54:02.196Z,0.85
2023-04-01T12:58:32.995Z,1.73
2023-04-01T13:03:20.888Z,0.70
2023-04-01T13:07:57.402Z,0.85
2023-04-01T13:12:52.183Z,0.70
2023-04-01T13:17:14.204Z,1.17
2023-04-01T13:22:02.977Z,1.00
2023-04-01T13:26:43.439Z,1.70
2023-04-01T13:31:41.959Z,1.45
2023-04-01T13:36:18.891Z,1.00
2023-04-01T13:41:17.880Z,1.75
2023-04-01T13:45:53.048Z,0.88
2023-04-01T13:51:09.216Z,0.70
2023-04-01T13:56:03.956Z,0.75
2023-04-01T14:00:47.832Z,0.70
2023-04-01T14:05:43.210Z,0.80
2023-04-01T14:10:50.998Z,0.80
2023-04-01T14:15:42.936Z,0.77
2023-04-01T14:20:31.586Z,0.85
2023-04-01T14:25:18.796Z,1.00
2023-04-01T14:30:08.715Z,0.95
2023-04-01T14:34:46.155Z,0.60
2023-04-01T14:40:06.797Z,0.65
2023-04-01T14:44:51.595Z,0.80
2023-04-01T14:49:37.060Z,0.98
2023-04-01T14:54:38.986Z,0.93
2023-04-01T14:59:01.282Z,1.02
2023-04-01T15:03:41.533Z,1.05
2023-04-01T15:08:15.723Z,1.73
2023-04-01T15:13:08.795Z,1.33
2023-04-01T15:18:06.858Z,0.98
2023-04-01T15:22:49.981Z,1.00
2023-04-01T15:27:53.443Z,0.70
2023-04-01T15:32:28.318Z,0.82
2023-04-01T15:37:19.962Z,1.60
2023-04-01T15:42:11.443Z,0.88
2023-04-01T15:46:50.132Z,0.60
2023-04-01T15:51:41.503Z,1.00
2023-04-01T15:56:29.138Z,0.45
2023-04-01T16:01:48.081Z,0.85
2023-04-01T16:06:44.889Z,0.90
2023-04-01T16:11:27.354Z,1.30
2023-04-01T16:16:27.843Z,1.80
2023-04-01T16:21:38.583Z,1.02
2023-04-01T16:26:49.394Z,0.93
2023-04-01T16:31:37.670Z,0.80
2023-04-01T16:36:23.313Z,0.77
2023-04-01T16:41:04.581Z,1.20
2023-04-01T16:45:29.633Z,1.02
2023-04-01T16:50:07.892Z,0.80
2023-04-01T16:55:02.880Z,1.42
2023-04-01T16:59:42.423Z,0.60
2023-04-01T17:04:55.622Z,1.10
2023-04-01T17:10:15.562Z,0.90
2023-04-01T17:14:48.499Z,0.80
2023-04-01T17:19:56.122Z,0.88
2023-04-01T17:24:52.458Z,0.88
2023-04-01T17:29:23.000Z,1.05
2023-04-01T17:34:15.817Z,1.02
2023-04-01T17:39:21.991Z,1.10
2023-04-01T17:44:46.501Z,0.77
2023-04-01T17:49:43.680Z,1.00
2023-04-01T17:54:47.619Z,1.17
2023-04-01T17:59:27.874Z,1.70
2023-04-01T18:04:01.725Z,1.70
2023-04-01T18:08:58.005Z,1.52
2023-04-01T18:13:47.546Z,1.85
2023-04-01T18:18:29.359Z,1.27
2023-04-01T18:23:19.380Z,1.30
2023-04-01T18:27:44.820Z,1.17
2023-04-01T18:32:57.313Z,1.08
2023-04-01T18:37:31.429Z,1.30
2023-04-01T18:42:16.221Z,1.17
2023-04-01T18:47:16.230Z,1.35
2023-04-01T18:52:10.835Z,1.00
2023-04-01T18:56:42.451Z,1.33
2023-04-01T19:01:25.242Z,1.70
2023-04-01T19:05:52.658Z,1.33
2023-04-01T19:10:34.897Z,1.20
2023-04-01T19:15:33.897Z,1.23
2023-04-01T19:20:05.793Z,1.73
2023-04-01T19:24:59.560Z,1.55
2023-04-01T19:29:46.911Z,1.63
2023-04-01T19:34:50.868Z,1.90
2023-04-01T19:39:49.391Z,2.42
2023-04-01T19:44:32.202Z,2.40
2023-04-01T19:49:22.772Z,2.10
2023-04-01T19:54:02.789Z,2.33
2023-04-01T19:59:01.895Z,2.59
2023-04-01T20:03:45.109Z,2.20
2023-04-01T20:08:31.916Z,2.38
2023-04-01T20:13:29.403Z,2.72
2023-04-01T20:17:55.579Z,3.30
2023-04-01T20:22:26.634Z,2.63
2023-04-01T20:27:01.305Z,2.17
2023-04-01T20:31:46.560Z,2.08
2023-04-01T20:36:41.685Z,2.33
2023-04-01T20:41:32.373Z,4.13
2023-04-01T20:46:00.296Z,2.90
2023-04-01T20:50:59.214Z,4.03
2023-04-01T20:55:39.498Z,2.50
2023-04-01T21:00:47.010Z,2.53
2023-04-01T21:05:54.682Z,1.70
2023-04-01T21:10:54.317Z,1.50
2023-04-01T21:15:49.885Z,1.10
2023-04-01T21:20:39.038Z,1.52
2023-04-01T21:25:05.932Z,1.05
2023-04-01T21:29:54.708Z,1.35
2023-04-01T21:35:08.695Z,1.17
2023-04-01T21:39:46.276Z,0.88
2023-04-01T21:44:48.957Z,1.00
2023-04-01T21:49:43.813Z,1.55
2023-04-01T21:54:22.722Z,1.10
2023-04-01T21:59:26.953Z,1.48
2023-04-01T22:04:07.960Z,1.77
2023-04-01T22:09:08.611Z,1.50
2023-04-01T22:13:55.006Z,1.50
2023-04-01T22:19:07.195Z,1.80
2023-04-01T22:24:04.018Z,1.70
2023-04-01T22:28:50.213Z,1.52
2023-04-01T22:33:36.272Z,1.42
2023-04-01T22:38:11.616Z,0.80
2023-04-01T22:43:10.033Z,0.57
2023-04-01T22:48:08.818Z,0.80
2023-04-01T22:52:46.491Z,0.73
2023-04-01T22:57:33.668Z,0.63
2023-04-01T23:02:02.490Z,0.82
2023-04-01T23:06:42.490Z,1.00
2023-04-01T23:11:09.341Z,1.73
2023-04-01T23:15:33.584Z,1.67
2023-04-01T23:20:23.788Z,1.88
2023-04-01T23:25:01.925Z,1.98
2023-04-01T23:29:24.708Z,1.90
2023-04-01T23:33:54.701Z,2.03
2023-04-01T23:38:18.769Z,2.30
2023-04-01T23:42:42.574Z,2.70
2023-04-01T23:47:06.859Z,2.67
2023-04-01T23:51:39.853Z,2.42
2023-04-01T23:56:04.301Z,2.30
